Time;durP1;ratioP1;P1;durP2;ratioP2;P2;SDS_P1;SDS_P2;PMS_P1;PMS_P2;Temp;Humidity;BMP_temperature;BMP_pressure;BME280_temperature;BME280_humidity;BME280_pressure;Samples;Min_cycle;Max_cycle;Signal;HPM_P1;HPM_P2
2022/10/05 00:01:00;;;;;;;5.68;2.60;;;;;;;15.52;80.84;101561.78;4992095;28;20128;-40
2022/10/05 00:03:32;;;;;;;12.25;2.50;;;;;;;15.52;80.98;101559.09;4991433;28;20022;-39
2022/10/05 00:05:58;;;;;;;10.00;2.72;;;;;;;15.53;80.94;101560.78;4986536;28;20045;-40
2022/10/05 00:08:29;;;;;;;6.03;2.30;;;;;;;15.49;81.11;101554.06;4994496;28;20579;-39
2022/10/05 00:10:55;;;;;;;9.50;2.30;;;;;;;15.47;80.83;101545.28;4962624;28;20286;-40
2022/10/05 00:13:25;;;;;;;5.22;2.50;;;;;;;15.49;81.09;101555.94;4985921;28;20385;-40
2022/10/05 00:16:06;;;;;;;13.27;2.47;;;;;;;15.45;80.74;101563.59;4976427;28;20531;-40
2022/10/05 00:18:32;;;;;;;6.63;2.33;;;;;;;15.47;80.48;101556.13;4976092;28;20594;-40
2022/10/05 00:20:57;;;;;;;7.05;2.40;;;;;;;15.48;80.18;101557.81;4989294;28;20031;-39
2022/10/05 00:23:30;;;;;;;5.07;2.75;;;;;;;15.46;80.04;101564.47;4977370;28;20032;-40
2022/10/05 00:26:11;;;;;;;8.00;2.58;;;;;;;15.45;79.72;101552.75;4994014;28;20296;-40
2022/10/05 00:28:39;;;;;;;11.02;2.83;;;;;;;15.45;79.69;101550.03;4977402;28;20429;-40
2022/10/05 00:31:13;;;;;;;6.30;2.58;;;;;;;15.46;79.42;101550.91;4994512;28;20125;-40
2022/10/05 00:33:38;;;;;;;10.35;2.45;;;;;;;15.45;79.22;101541.91;4976978;28;20068;-40
2022/10/05 00:36:05;;;;;;;7.25;2.60;;;;;;;15.44;79.04;101540.25;4985043;28;20059;-39
2022/10/05 00:38:31;;;;;;;7.72;2.53;;;;;;;15.43;79.00;101541.28;4994849;28;20039;-39
2022/10/05 00:41:20;;;;;;;6.43;2.40;;;;;;;15.42;78.78;101536.06;4994269;28;20039;-40
2022/10/05 00:44:02;;;;;;;6.53;2.22;;;;;;;15.45;78.47;101533.78;4976723;28;20505;-39
2022/10/05 00:46:40;;;;;;;8.60;2.33;;;;;;;15.41;78.41;101524.38;4993697;28;20049;-40
2022/10/05 00:49:21;;;;;;;8.18;2.20;;;;;;;15.43;78.53;101522.31;4994113;28;20128;-39
2022/10/05 00:52:19;;;;;;;8.85;2.30;;;;;;;15.42;77.98;101509.75;4976672;28;20058;-40
2022/10/05 00:55:25;;;;;;;7.40;2.70;;;;;;;15.44;77.90;101507.69;4966135;28;20043;-40
2022/10/05 00:58:06;;;;;;;9.60;2.15;;;;;;;15.43;77.81;101506.03;4990159;28;20049;-40
2022/10/05 01:00:35;;;;;;;6.72;1.92;;;;;;;15.45;77.74;101503.09;4994151;28;20091;-40
2022/10/05 01:03:18;;;;;;;9.75;2.05;;;;;;;15.44;77.58;101490.59;4990213;28;20046;-39
2022/10/05 01:05:56;;;;;;;6.90;2.28;;;;;;;15.44;77.65;101475.13;4972596;28;20533;-40
2022/10/05 01:08:40;;;;;;;9.05;2.40;;;;;;;15.43;77.73;101473.47;4990795;28;20046;-39
2022/10/05 01:11:17;;;;;;;6.35;1.90;;;;;;;15.43;77.88;101476.19;4983455;28;20036;-40
2022/10/05 01:13:51;;;;;;;3.83;1.90;;;;;;;15.42;78.08;101482.63;4986282;28;20030;-40
2022/10/05 01:16:17;;;;;;;4.65;1.80;;;;;;;15.43;77.85;101478.91;4991705;28;20117;-39
2022/10/05 01:18:51;;;;;;;10.95;2.33;;;;;;;15.42;77.67;101466.34;4992914;28;20113;-39
2022/10/05 01:21:31;;;;;;;6.95;1.90;;;;;;;15.42;77.82;101471.78;4990928;28;20026;-40
2022/10/05 01:24:08;;;;;;;5.43;1.65;;;;;;;15.43;78.05;101472.63;4993386;28;20033;-40
2022/10/05 01:26:42;;;;;;;4.35;1.73;;;;;;;15.42;77.71;101471.78;4993225;28;20042;-39
2022/10/05 01:29:26;;;;;;;8.07;1.77;;;;;;;15.42;77.86;101471.78;4992627;28;20030;-40
2022/10/05 01:31:54;;;;;;;9.23;1.67;;;;;;;15.42;77.68;101474.50;4960100;28;20045;-40
2022/10/05 01:34:28;;;;;;;5.80;1.75;;;;;;;15.43;77.42;101464.47;4993331;28;20176;-40
2022/10/05 01:37:21;;;;;;;7.63;2.25;;;;;;;15.41;77.51;101459.28;4991311;28;20035;-39
2022/10/05 01:39:47;;;;;;;12.65;2.28;;;;;;;15.41;77.70;101451.13;4993292;28;20030;-39
2022/10/05 01:42:18;;;;;;;6.57;1.90;;;;;;;15.44;77.74;101442.59;4993417;28;20088;-39
2022/10/05 01:45:07;;;;;;;5.90;2.20;;;;;;;15.40;78.23;101422.31;4993105;28;20362;-39
2022/10/05 01:47:43;;;;;;;7.65;2.28;;;;;;;15.31;78.88;101427.06;4984921;28;20034;-39
2022/10/05 01:50:33;;;;;;;7.30;3.20;;;;;;;15.21;79.95;101425.75;4993606;28;20030;-39
2022/10/05 01:53:13;;;;;;;12.13;3.20;;;;;;;15.18;80.83;101431.56;4993410;28;20454;-39
2022/10/05 01:55:54;;;;;;;7.85;3.30;;;;;;;15.19;81.36;101422.38;4976189;28;20074;-38
2022/10/05 01:58:44;;;;;;;10.07;3.90;;;;;;;15.14;81.71;101410.28;4993649;28;20121;-39
2022/10/05 02:01:25;;;;;;;12.98;4.20;;;;;;;15.07;82.49;101403.13;4975305;28;20113;-40
2022/10/05 02:04:14;;;;;;;8.93;3.80;;;;;;;15.05;82.58;101394.34;4979961;28;20058;-39
2022/10/05 02:06:42;;;;;;;9.23;4.30;;;;;;;15.04;83.02;101409.78;5020456;23;20062;-79
2022/10/05 02:09:11;;;;;;;;;;;;;;;15.03;83.31;101397.25;4975191;28;20038;-78
2022/10/05 02:11:38;;;;;;;8.05;4.57;;;;;;;15.02;83.48;101403.72;4992188;28;19968;-76
2022/10/05 02:14:11;;;;;;;9.77;4.20;;;;;;;14.97;83.83;101402.66;4992246;28;20022;-79
2022/10/05 02:16:39;;;;;;;10.25;3.90;;;;;;;14.95;84.12;101405.53;4992370;28;20500;-79
2022/10/05 02:19:28;;;;;;;9.52;4.30;;;;;;;14.96;84.05;101400.97;4992380;28;20057;-79
2022/10/05 02:22:19;;;;;;;8.05;4.25;;;;;;;14.91;84.08;101405.09;4992425;28;20026;-79
2022/10/05 02:24:49;;;;;;;13.20;4.50;;;;;;;14.89;84.53;101401.75;4991614;28;20421;-79
2022/10/05 02:27:20;;;;;;;13.68;4.38;;;;;;;14.89;84.62;101395.50;4992128;28;20030;-78
2022/10/05 02:29:47;;;;;;;9.93;3.92;;;;;;;14.88;84.60;101383.00;4993314;28;20042;-79
2022/10/05 02:32:16;;;;;;;11.00;4.05;;;;;;;14.89;84.62;101384.66;4991829;28;20032;-79
2022/10/05 02:34:42;;;;;;;15.00;4.68;;;;;;;14.88;84.73;101388.41;4991546;28;20117;-78
2022/10/05 02:37:42;;;;;;;11.95;4.47;;;;;;;14.89;84.97;101390.06;4992691;28;20130;-78
2022/10/05 02:40:35;;;;;;;14.57;4.60;;;;;;;14.91;84.98;101393.44;4992199;28;20030;-78
2022/10/05 02:43:22;;;;;;;9.23;5.03;;;;;;;14.87;85.01;101394.84;4993241;28;20045;-77
2022/10/05 02:46:03;;;;;;;7.43;4.40;;;;;;;14.91;85.36;101379.88;4977277;28;20832;-79
2022/10/05 02:48:53;;;;;;;10.40;5.00;;;;;;;14.91;85.18;101390.72;4991394;28;20683;-79
2022/10/05 02:51:35;;;;;;;13.40;4.82;;;;;;;14.88;85.13;101415.50;4993110;28;20041;-80
2022/10/05 02:54:23;;;;;;;15.90;5.82;;;;;;;14.87;85.13;101384.00;4991591;28;20546;-79
2022/10/05 02:57:09;;;;;;;10.05;4.60;;;;;;;14.86;85.38;101402.16;4992546;28;20022;-76
2022/10/05 02:59:42;;;;;;;9.32;4.63;;;;;;;14.84;85.26;101392.53;4992025;28;20048;-78
2022/10/05 03:02:19;;;;;;;13.18;5.10;;;;;;;14.84;85.56;101398.78;4991084;28;20423;-77
2022/10/05 03:05:04;;;;;;;13.30;4.50;;;;;;;14.84;85.35;101398.78;4992223;28;20038;-76
2022/10/05 03:07:34;;;;;;;16.92;4.72;;;;;;;14.87;85.40;101392.13;4988749;28;20042;-76
2022/10/05 03:10:08;;;;;;;10.05;4.78;;;;;;;14.91;85.53;101388.00;4995456;28;20026;-77
2022/10/05 03:12:52;;;;;;;10.90;4.43;;;;;;;14.91;85.09;101394.25;4995288;28;20042;-76
2022/10/05 03:15:41;;;;;;;9.80;4.45;;;;;;;14.91;85.24;101382.59;4987646;28;20019;-77
2022/10/05 03:18:26;;;;;;;9.32;4.55;;;;;;;14.90;84.95;101381.75;4986844;28;20038;-77
2022/10/05 03:21:13;;;;;;;12.82;4.72;;;;;;;14.89;84.90;101381.94;4991248;28;20030;-77
2022/10/05 03:23:59;;;;;;;9.98;4.05;;;;;;;14.93;84.75;101375.09;4992427;28;20073;-78
2022/10/05 03:26:47;;;;;;;11.50;4.15;;;;;;;14.91;84.57;101371.75;4974688;28;20026;-78
2022/10/05 03:29:29;;;;;;;12.57;4.80;;;;;;;14.88;84.16;101369.44;4982950;28;20367;-76
2022/10/05 03:32:18;;;;;;;11.93;3.88;;;;;;;14.93;84.32;101375.09;4976616;28;20030;-78
2022/10/05 03:34:48;;;;;;;13.13;4.50;;;;;;;14.90;84.28;101365.50;4988431;28;20053;-77
2022/10/05 03:37:55;;;;;;;10.13;4.95;;;;;;;14.90;83.91;101370.06;4989462;28;20058;-77
2022/10/05 03:40:37;;;;;;;;;;;;;;;14.91;83.96;101363.63;4976948;28;20088;-77
2022/10/05 03:43:02;;;;;;;8.02;4.20;;;;;;;14.90;84.27;101370.91;4989624;28;19917;-77
2022/10/05 03:45:39;;;;;;;16.25;5.30;;;;;;;14.90;83.86;101367.34;4990865;28;20022;-78
2022/10/05 03:48:10;;;;;;;10.48;4.95;;;;;;;14.91;83.76;101372.59;4989882;28;20050;-77
2022/10/05 03:50:44;;;;;;;10.50;4.78;;;;;;;14.89;83.90;101368.41;4990220;28;20049;-77
2022/10/05 03:53:18;;;;;;;7.70;4.70;;;;;;;14.90;84.05;101375.47;4990898;28;20141;-77
2022/10/05 03:56:14;;;;;;;18.92;5.35;;;;;;;14.87;84.03;101362.31;4989224;28;20112;-78
2022/10/05 03:58:48;;;;;;;11.70;5.15;;;;;;;14.88;84.03;101364.03;4967572;28;20693;-76
2022/10/05 04:01:22;;;;;;;14.60;5.88;;;;;;;14.87;83.96;101370.47;4985360;28;20106;-77
2022/10/05 04:03:51;;;;;;;13.68;4.97;;;;;;;14.86;84.01;101357.97;4994383;28;20663;-77
2022/10/05 04:06:19;;;;;;;11.10;5.32;;;;;;;14.86;83.78;101364.22;4993204;28;20057;-77
2022/10/05 04:08:59;;;;;;;16.10;4.75;;;;;;;14.87;83.27;101356.91;4975066;28;20353;-77
2022/10/05 04:11:41;;;;;;;9.18;5.03;;;;;;;14.90;83.43;101362.78;4989484;28;20040;-77
2022/10/05 04:14:14;;;;;;;14.18;4.72;;;;;;;14.89;83.33;101354.84;4974581;28;20043;-77
2022/10/05 04:16:43;;;;;;;12.93;4.97;;;;;;;14.88;83.19;101354.00;4994026;28;20117;-78
2022/10/05 04:19:09;;;;;;;8.90;5.03;;;;;;;14.87;83.00;101355.03;4992927;28;20025;-76
2022/10/05 04:21:43;;;;;;;8.23;4.00;;;;;;;14.87;83.12;101346.06;4994243;28;20122;-77
2022/10/05 04:24:13;;;;;;;14.27;4.15;;;;;;;14.89;82.84;101360.25;4992586;28;20102;-78
2022/10/05 04:26:53;;;;;;;11.38;4.32;;;;;;;14.89;82.81;101330.44;4992911;28;20080;-77
2022/10/05 04:29:38;;;;;;;6.65;4.10;;;;;;;14.87;83.35;101337.94;4992365;28;20442;-77
2022/10/05 04:32:15;;;;;;;11.43;4.53;;;;;;;14.85;83.34;101340.00;4993878;28;20047;-77
2022/10/05 04:35:18;;;;;;;10.82;3.90;;;;;;;14.82;83.25;101335.81;4993334;28;20065;-77
2022/10/05 04:37:51;;;;;;;19.08;4.82;;;;;;;14.83;83.52;101328.53;4984327;28;20035;-77
2022/10/05 04:40:28;;;;;;;6.82;3.55;;;;;;;14.80;83.44;101320.81;4993769;28;20034;-77
2022/10/05 04:43:12;;;;;;;8.60;4.53;;;;;;;14.78;83.61;101315.59;4994487;28;20053;-76
2022/10/05 04:45:50;;;;;;;7.82;3.67;;;;;;;14.77;83.72;101316.63;4983766;28;20489;-76
2022/10/05 04:48:24;;;;;;;16.02;4.18;;;;;;;14.79;83.46;101313.72;4995226;28;20077;-77
2022/10/05 04:51:12;;;;;;;8.20;3.45;;;;;;;14.76;83.41;101309.53;4989109;28;20479;-78
2022/10/05 04:53:57;;;;;;;8.32;3.38;;;;;;;14.74;83.20;101310.75;4993620;28;20100;-77
2022/10/05 04:56:35;;;;;;;8.05;3.33;;;;;;;14.72;83.17;101308.25;4987239;28;20038;-78
2022/10/05 04:59:05;;;;;;;7.47;2.97;;;;;;;14.73;82.91;101307.22;4975419;28;20125;-77
2022/10/05 05:02:05;;;;;;;6.18;3.30;;;;;;;14.69;83.56;101303.22;4990259;28;20062;-77
2022/10/05 05:04:58;;;;;;;8.48;3.00;;;;;;;14.67;83.61;101299.88;4988123;28;20073;-77
2022/10/05 05:07:26;;;;;;;5.35;2.90;;;;;;;14.63;83.66;101299.41;4993183;28;20057;-78
2022/10/05 05:09:57;;;;;;;5.47;2.53;;;;;;;14.62;83.95;101296.94;4983711;28;20077;-78
2022/10/05 05:12:40;;;;;;;7.90;2.70;;;;;;;14.66;83.93;101292.78;4993308;28;20065;-77
2022/10/05 05:15:29;;;;;;;7.65;2.92;;;;;;;14.65;84.03;101291.09;4994121;28;20053;-77
2022/10/05 05:17:58;;;;;;;6.85;2.65;;;;;;;14.63;84.09;101283.16;4990719;28;20479;-77
2022/10/05 05:20:41;;;;;;;6.32;2.65;;;;;;;14.61;84.07;101290.69;4994171;28;20474;-77
2022/10/05 05:23:31;;;;;;;4.85;2.53;;;;;;;14.60;84.14;101282.75;4992629;28;20022;-77
2022/10/05 05:26:15;;;;;;;3.65;2.70;;;;;;;14.60;84.39;101286.28;4975007;28;20110;-77
2022/10/05 05:28:43;;;;;;;5.18;2.72;;;;;;;14.58;83.81;101282.91;4988436;28;20293;-77
2022/10/05 05:31:11;;;;;;;;;;;;;;;14.60;83.88;101280.88;4994885;28;20034;-77
2022/10/05 05:33:57;;;;;;;2.72;2.30;;;;;;;14.58;83.64;101285.63;4999266;28;19914;-77
2022/10/05 05:36:23;;;;;;;5.40;2.35;;;;;;;14.61;83.62;101285.25;4974987;28;20073;-78
2022/10/05 05:39:10;;;;;;;9.25;2.50;;;;;;;14.62;83.61;101286.09;4993078;28;20378;-79
2022/10/05 05:41:47;;;;;;;9.70;2.38;;;;;;;14.63;83.51;101288.59;4995370;28;20547;-78
2022/10/05 05:44:27;;;;;;;7.28;2.38;;;;;;;14.65;83.42;101286.53;4994384;28;20140;-77
2022/10/05 05:47:01;;;;;;;7.88;2.30;;;;;;;14.67;83.74;101278.22;4970077;28;20089;-78
2022/10/05 05:49:48;;;;;;;5.13;2.35;;;;;;;14.67;83.51;101284.47;4974445;28;20549;-77
2022/10/05 05:52:16;;;;;;;3.20;2.28;;;;;;;14.68;83.54;101288.84;4993221;28;20470;-77
2022/10/05 05:54:49;;;;;;;5.28;2.53;;;;;;;14.74;83.45;101291.78;4995331;28;20038;-78
2022/10/05 05:57:27;;;;;;;6.07;3.63;;;;;;;14.74;83.27;101287.19;4993143;28;20110;-78
2022/10/05 06:00:04;;;;;;;3.40;1.95;;;;;;;14.73;83.61;101282.00;4993085;28;20022;-79
2022/10/05 06:02:39;;;;;;;12.02;2.03;;;;;;;14.70;83.74;101289.47;4986567;28;20039;-78
2022/10/05 06:05:27;;;;;;;6.53;2.20;;;;;;;14.71;84.00;101284.88;4991961;28;20125;-77
2022/10/05 06:07:54;;;;;;;5.10;2.60;;;;;;;14.71;84.03;101293.00;4991462;28;20096;-76
2022/10/05 06:10:31;;;;;;;6.25;2.40;;;;;;;14.73;84.20;101287.41;4992055;28;20030;-76
2022/10/05 06:13:04;;;;;;;5.00;2.05;;;;;;;14.76;83.97;101287.00;4991756;28;20035;-77
2022/10/05 06:15:39;;;;;;;5.32;2.22;;;;;;;14.78;83.96;101290.38;4992491;28;20035;-77
2022/10/05 06:18:16;;;;;;;4.15;2.25;;;;;;;14.82;83.71;101291.63;4994716;28;20049;-77
2022/10/05 06:20:47;;;;;;;9.73;2.78;;;;;;;14.83;83.95;101293.31;4993663;28;20034;-76
2022/10/05 06:23:17;;;;;;;4.05;2.47;;;;;;;14.82;84.17;101294.34;4992228;28;20113;-79
2022/10/05 06:26:03;;;;;;;5.43;2.38;;;;;;;14.81;84.12;101295.38;4990850;28;20117;-76
2022/10/05 06:28:29;;;;;;;5.40;2.78;;;;;;;14.82;84.24;101302.47;4992386;28;20394;-77
2022/10/05 06:31:13;;;;;;;7.15;3.00;;;;;;;14.85;84.26;101296.63;4992509;28;20459;-77
2022/10/05 06:33:47;;;;;;;9.25;3.17;;;;;;;14.84;84.58;101293.09;4992135;28;20030;-77
2022/10/05 06:36:51;;;;;;;11.30;2.80;;;;;;;14.80;84.94;101293.72;4990325;28;20061;-75
2022/10/05 06:39:55;;;;;;;6.70;3.70;;;;;;;14.77;85.20;101288.69;4982401;28;20038;-76
2022/10/05 06:42:48;;;;;;;9.38;3.42;;;;;;;14.84;84.99;101278.72;4984334;28;20033;-79
2022/10/05 06:45:32;;;;;;;4.32;3.20;;;;;;;14.87;84.93;101290.00;4986028;28;20027;-77
2022/10/05 06:48:09;;;;;;;6.72;3.47;;;;;;;14.86;85.15;101298.34;4981436;28;20278;-76
2022/10/05 06:50:45;;;;;;;8.77;4.00;;;;;;;14.86;84.95;101298.34;4975511;28;20041;-77
2022/10/05 06:53:10;;;;;;;6.88;3.30;;;;;;;14.89;85.16;101293.34;4978400;28;20039;-77
2022/10/05 06:55:49;;;;;;;7.03;3.40;;;;;;;14.91;85.04;101295.88;4986520;28;20033;-76
2022/10/05 06:58:35;;;;;;;7.70;3.65;;;;;;;14.91;84.96;101299.41;4990733;28;20081;-78
2022/10/05 07:01:22;;;;;;;8.95;3.33;;;;;;;14.92;84.90;101300.25;4989845;28;20043;-77
2022/10/05 07:03:48;;;;;;;;;;;;;;;14.95;84.74;101304.44;4990984;28;20037;-77
2022/10/05 07:06:16;;;;;;;13.70;4.43;;;;;;;14.93;84.81;101299.22;4991502;28;19917;-77
2022/10/05 07:08:44;;;;;;;;;;;;;;;14.98;85.02;101295.88;4990835;28;20300;-78
2022/10/05 07:11:47;;;;;;;7.18;3.50;;;;;;;14.96;84.91;101292.56;4990435;28;19941;-77
2022/10/05 07:14:26;;;;;;;5.32;3.33;;;;;;;14.97;84.82;101286.94;4991533;28;20034;-77
2022/10/05 07:17:21;;;;;;;8.27;3.65;;;;;;;15.02;84.83;101287.16;4995177;28;20030;-78
2022/10/05 07:19:46;;;;;;;5.30;3.30;;;;;;;15.00;84.69;101286.53;4983950;28;20437;-78
2022/10/05 07:22:34;;;;;;;7.57;3.63;;;;;;;15.02;84.80;101276.31;4988102;28;20077;-76
2022/10/05 07:24:59;;;;;;;;;;;;;;;15.00;84.63;101281.09;4991873;28;20033;-77
2022/10/05 07:27:28;;;;;;;9.80;3.80;;;;;;;15.01;85.02;101285.50;4991941;28;19917;-77
2022/10/05 07:30:09;;;;;;;8.00;3.47;;;;;;;15.01;84.92;101290.94;4976474;28;20281;-77
2022/10/05 07:33:08;;;;;;;6.60;3.45;;;;;;;15.03;84.89;101280.69;4990497;28;20029;-78
2022/10/05 07:38:46;;;;;;;8.80;3.67;;;;;;;15.07;84.73;101279.28;4994428;28;20069;-78
2022/10/05 07:41:20;;;;;;;13.57;4.05;;;;;;;15.06;84.80;101285.75;4992921;28;20038;-77
2022/10/05 07:43:54;;;;;;;6.95;3.13;;;;;;;15.08;84.70;101280.09;4993693;28;20038;-78
2022/10/05 07:46:26;;;;;;;6.47;3.00;;;;;;;15.08;84.77;101283.63;4995058;28;20483;-78
2022/10/05 07:49:20;;;;;;;10.18;3.45;;;;;;;15.11;84.91;101279.69;4995547;28;20529;-77
2022/10/05 07:51:59;;;;;;;11.27;3.95;;;;;;;15.10;84.73;101272.59;4989155;28;20030;-76
2022/10/05 07:54:39;;;;;;;7.47;4.10;;;;;;;15.10;85.06;101272.59;4994244;28;20026;-77
2022/10/05 07:57:26;;;;;;;7.40;3.60;;;;;;;15.14;85.19;101273.91;4994512;28;20376;-77
2022/10/05 08:00:03;;;;;;;16.75;4.72;;;;;;;15.14;84.91;101273.91;4990401;28;20023;-77
2022/10/05 08:03:08;;;;;;;7.07;3.67;;;;;;;15.11;85.23;101269.72;4989827;28;20418;-77
2022/10/05 08:05:40;;;;;;;10.93;4.35;;;;;;;15.10;84.86;101268.00;4926971;29;20121;-79
2022/10/05 08:08:14;;;;;;;9.27;4.60;;;;;;;15.11;85.01;101267.00;4979969;28;20445;-78
2022/10/05 08:10:52;;;;;;;12.18;4.10;;;;;;;15.13;85.17;101270.31;4994147;28;20082;-77
2022/10/05 08:13:33;;;;;;;8.48;4.07;;;;;;;15.09;84.94;101266.34;4995283;28;20080;-77
2022/10/05 08:16:08;;;;;;;7.53;4.20;;;;;;;15.19;85.29;101265.13;4976883;28;20030;-76
2022/10/05 08:18:55;;;;;;;8.25;4.32;;;;;;;15.29;85.05;101262.88;4993317;28;20447;-78
2022/10/05 08:21:44;;;;;;;9.98;4.85;;;;;;;15.33;84.38;101256.03;4993124;28;20026;-78
2022/10/05 08:24:21;;;;;;;15.07;4.00;;;;;;;15.30;84.06;101262.69;4986941;28;20117;-78
2022/10/05 08:27:00;;;;;;;9.48;4.70;;;;;;;15.31;84.22;101260.81;4975966;28;20034;-79
2022/10/05 08:29:28;;;;;;;16.58;4.47;;;;;;;15.34;84.12;101253.09;4991126;28;20041;-77
2022/10/05 08:32:00;;;;;;;7.65;4.30;;;;;;;15.40;83.93;101254.16;4994933;28;20022;-77
2022/10/05 08:35:07;;;;;;;10.45;4.05;;;;;;;15.35;83.53;101249.38;4995050;28;20030;-77
2022/10/05 08:37:34;;;;;;;;;;;;;;;15.34;83.27;101247.66;4978972;28;20175;-78
2022/10/05 08:40:17;;;;;;;9.90;4.43;;;;;;;15.37;83.49;101246.44;4993814;28;19994;-78
2022/10/05 08:43:04;;;;;;;14.80;4.15;;;;;;;15.39;83.38;101249.78;4995075;28;20121;-77
2022/10/05 08:45:38;;;;;;;10.15;4.45;;;;;;;15.50;82.91;101249.19;4994222;28;20064;-77
2022/10/05 08:48:14;;;;;;;9.50;4.20;;;;;;;15.50;82.64;101246.47;4994122;28;20454;-77
2022/10/05 08:51:08;;;;;;;8.93;3.35;;;;;;;15.57;82.98;101241.06;4994956;28;20039;-77
2022/10/05 08:54:07;;;;;;;6.80;3.55;;;;;;;15.54;82.47;101226.03;4994658;28;20049;-78
2022/10/05 08:56:52;;;;;;;11.82;3.92;;;;;;;15.64;82.49;101230.22;4993577;28;20057;-77
2022/10/05 08:59:57;;;;;;;17.10;4.35;;;;;;;15.63;82.11;101229.38;4996028;28;20577;-77
2022/10/05 09:02:36;;;;;;;11.18;3.85;;;;;;;15.67;81.90;101224.41;4988846;28;20129;-77
2022/10/05 09:05:39;;;;;;;10.75;3.30;;;;;;;15.72;81.14;101225.47;5009303;28;20421;-76
2022/10/05 09:08:29;;;;;;;7.10;3.03;;;;;;;15.72;80.61;101216.50;4996915;28;20047;-77
2022/10/05 09:11:06;;;;;;;8.65;2.78;;;;;;;15.75;80.86;101214.22;4998971;28;20018;-76
2022/10/05 09:13:49;;;;;;;11.75;3.00;;;;;;;15.76;80.38;101224.00;4994133;28;20027;-78
2022/10/05 09:16:25;;;;;;;4.25;2.70;;;;;;;15.78;79.96;101218.38;4995603;28;20689;-77
2022/10/05 09:19:09;;;;;;;4.80;2.80;;;;;;;15.92;79.74;101228.19;4996222;28;20057;-79
2022/10/05 09:21:57;;;;;;;11.20;2.63;;;;;;;15.94;79.13;101223.41;4989558;28;20038;-80
2022/10/05 09:24:28;;;;;;;9.70;2.65;;;;;;;15.94;79.10;101219.84;4991850;28;20042;-79
2022/10/05 09:27:01;;;;;;;10.45;2.75;;;;;;;15.88;78.51;101235.09;4994033;28;20027;-77
2022/10/05 09:29:52;;;;;;;8.48;2.78;;;;;;;15.80;77.72;101227.16;4989611;28;20049;-79
2022/10/05 09:32:26;;;;;;;9.93;2.53;;;;;;;15.87;78.03;101229.88;4991634;28;20109;-79
2022/10/05 09:35:29;;;;;;;7.03;2.50;;;;;;;15.88;77.57;101237.81;4995208;28;20046;-79
2022/10/05 09:38:22;;;;;;;7.68;2.50;;;;;;;15.88;77.10;101232.38;4992033;28;20049;-78
2022/10/05 09:41:24;;;;;;;8.88;2.60;;;;;;;15.82;76.79;101227.78;4989260;28;20026;-79
2022/10/05 09:44:17;;;;;;;8.00;2.40;;;;;;;15.85;77.20;101238.25;4990908;28;20026;-79
2022/10/05 09:47:04;;;;;;;8.30;2.60;;;;;;;15.79;76.91;101234.44;4992759;28;20062;-78
2022/10/05 09:49:57;;;;;;;7.65;2.50;;;;;;;15.78;76.53;101240.09;4992352;28;20108;-78
2022/10/05 09:52:48;;;;;;;7.30;2.15;;;;;;;15.77;76.74;101230.25;4994149;28;20035;-78
2022/10/05 09:55:26;;;;;;;5.93;2.67;;;;;;;15.80;77.10;101232.59;4980616;28;20042;-76
2022/10/05 09:58:16;;;;;;;10.63;2.90;;;;;;;15.78;77.31;101226.53;4988612;28;20069;-79
2022/10/05 10:01:06;;;;;;;15.40;3.03;;;;;;;15.79;77.28;101225.47;4993387;28;20478;-77
2022/10/05 10:03:52;;;;;;;6.32;2.40;;;;;;;15.74;77.33;101227.97;4994224;28;20046;-78
2022/10/05 10:06:30;;;;;;;7.05;2.47;;;;;;;15.76;77.56;101215.03;4993139;28;20053;-80
2022/10/05 10:09:16;;;;;;;12.45;3.10;;;;;;;15.73;77.45;101219.00;4985044;28;20659;-78
2022/10/05 10:12:00;;;;;;;6.05;2.05;;;;;;;15.73;78.08;101220.88;4971903;28;20105;-78
2022/10/05 10:14:44;;;;;;;8.45;2.53;;;;;;;15.79;77.99;101211.91;4989257;28;20443;-79
2022/10/05 10:17:40;;;;;;;6.80;2.60;;;;;;;15.74;78.08;101208.97;4992592;28;20061;-78
2022/10/05 10:20:21;;;;;;;9.00;2.45;;;;;;;15.77;78.25;101203.13;4990903;28;20034;-79
2022/10/05 10:23:13;;;;;;;7.35;2.13;;;;;;;15.79;78.06;101201.06;4992201;28;20030;-78
2022/10/05 10:26:10;;;;;;;7.05;2.70;;;;;;;15.80;77.72;101202.75;4985369;28;20471;-77
2022/10/05 10:28:59;;;;;;;12.90;2.58;;;;;;;15.78;78.15;101211.06;4978297;28;20030;-79
2022/10/05 10:31:36;;;;;;;10.70;2.30;;;;;;;15.77;77.67;101208.56;4991887;28;20026;-79
2022/10/05 10:34:10;;;;;;;5.65;2.65;;;;;;;15.77;77.48;101214.84;4992457;28;20045;-79
2022/10/05 10:36:50;;;;;;;8.50;2.55;;;;;;;15.77;77.74;101203.13;4993125;28;20461;-81
2022/10/05 10:39:40;;;;;;;9.60;2.83;;;;;;;15.77;77.93;101205.84;4992068;28;20463;-78
2022/10/05 10:42:35;;;;;;;8.63;2.80;;;;;;;15.79;78.31;101211.91;4991401;28;20038;-79
2022/10/05 10:45:12;;;;;;;7.30;4.13;;;;;;;15.87;78.11;101227.16;4991161;28;20046;-79
2022/10/05 10:47:45;;;;;;;21.23;3.50;;;;;;;15.75;78.11;101202.53;4988529;28;20057;-80
2022/10/05 10:50:32;;;;;;;6.63;3.70;;;;;;;15.79;78.40;101201.06;4982623;28;20046;-81
2022/10/05 10:53:08;;;;;;;10.43;4.10;;;;;;;15.79;78.43;101206.47;4972813;28;20058;-80
2022/10/05 10:55:43;;;;;;;13.73;4.23;;;;;;;15.82;78.02;101195.19;4985036;28;20042;-79
2022/10/05 10:58:27;;;;;;;6.95;3.33;;;;;;;15.81;77.53;101212.53;4994921;28;20034;-77
2022/10/05 11:00:58;;;;;;;7.38;3.30;;;;;;;15.86;77.94;101210.03;4992844;28;20049;-78
2022/10/05 11:03:54;;;;;;;12.88;3.70;;;;;;;15.84;77.90;101209.41;4993017;28;20024;-79
2022/10/05 11:06:55;;;;;;;13.23;4.45;;;;;;;15.83;78.33;101213.19;4986357;28;20104;-78
2022/10/05 11:09:54;;;;;;;8.60;4.25;;;;;;;15.85;78.74;101211.09;4966986;28;20510;-79
2022/10/05 11:12:35;;;;;;;8.65;3.80;;;;;;;15.89;79.22;101212.34;4987637;28;20096;-80
2022/10/05 11:15:27;;;;;;;13.02;4.10;;;;;;;15.88;78.87;101194.38;4985795;28;20030;-77
2022/10/05 11:18:00;;;;;;;14.38;4.43;;;;;;;15.91;78.98;101202.09;4984672;28;20058;-78
2022/10/05 11:20:45;;;;;;;8.13;4.70;;;;;;;15.90;78.96;101210.44;5000748;28;20039;-78
2022/10/05 11:23:32;;;;;;;18.15;5.60;;;;;;;15.91;78.53;101204.81;4988428;28;20065;-78
2022/10/05 11:26:31;;;;;;;8.18;4.50;;;;;;;15.95;78.95;101184.34;4989346;28;20393;-76
2022/10/05 11:29:04;;;;;;;11.40;4.22;;;;;;;16.04;79.26;101185.00;4989004;28;20088;-78
2022/10/05 11:31:35;;;;;;;24.23;4.63;;;;;;;16.11;79.06;101187.69;4987270;28;20117;-76
2022/10/05 11:34:11;;;;;;;16.95;4.80;;;;;;;16.14;78.48;101193.56;4984796;28;20022;-76
2022/10/05 11:37:05;;;;;;;11.75;4.05;;;;;;;16.17;77.92;101162.44;4968576;28;20530;-77
2022/10/05 11:40:08;;;;;;;18.50;4.22;;;;;;;16.21;77.90;101155.50;4973514;28;20030;-77
2022/10/05 11:43:15;;;;;;;11.70;4.82;;;;;;;16.28;77.63;101166.38;4985660;28;20062;-78
2022/10/05 11:45:49;;;;;;;13.45;3.63;;;;;;;16.33;76.92;101170.13;4970041;28;20047;-76
2022/10/05 11:48:23;;;;;;;10.13;3.85;;;;;;;16.34;77.07;101163.63;4974260;28;20030;-79
2022/10/05 11:51:27;;;;;;;14.32;4.18;;;;;;;16.43;76.46;101159.66;4979819;28;20034;-78
2022/10/05 11:54:16;;;;;;;13.65;3.58;;;;;;;16.42;76.22;101157.97;4987367;28;20037;-79
2022/10/05 11:56:55;;;;;;;12.52;3.22;;;;;;;16.43;76.21;101154.22;4983366;28;20034;-80
2022/10/05 11:59:33;;;;;;;13.13;3.40;;;;;;;16.36;76.21;101155.28;4988214;28;20040;-79
2022/10/05 12:02:05;;;;;;;;;;;;;;;16.39;76.76;101158.41;4987681;28;20096;-79
2022/10/05 12:04:33;;;;;;;12.38;3.50;;;;;;;16.48;76.56;101152.72;5002650;28;19953;-78
2022/10/05 12:07:16;;;;;;;15.85;3.80;;;;;;;16.42;76.42;101149.81;4984718;28;20108;-76
2022/10/05 12:10:13;;;;;;;7.45;3.30;;;;;;;16.51;76.57;101163.16;4988984;28;20378;-78
2022/10/05 12:12:59;;;;;;;18.67;3.88;;;;;;;16.49;75.93;101148.97;4976098;28;20089;-78
2022/10/05 12:15:52;;;;;;;7.43;3.47;;;;;;;16.46;75.96;101132.06;4991175;28;20466;-77
2022/10/05 12:18:29;;;;;;;11.02;3.40;;;;;;;16.57;75.91;101133.28;4989791;28;20084;-78
2022/10/05 12:21:15;;;;;;;11.60;3.08;;;;;;;16.66;75.67;101161.03;4991529;28;20109;-78
2022/10/05 12:23:59;;;;;;;4.60;2.83;;;;;;;16.63;75.32;101145.16;4995341;28;20506;-78
2022/10/05 12:26:29;;;;;;;11.07;3.10;;;;;;;16.46;75.65;101134.78;4994663;28;20030;-75
2022/10/05 12:29:01;;;;;;;16.35;3.30;;;;;;;16.55;76.04;101129.09;4994061;28;20441;-76